createdAt,value
2023-05-01T00:01:05.311Z,10.61
2023-05-01T00:02:37.258Z,10.59
2023-05-01T00:04:09.119Z,10.63
2023-05-01T00:05:40.916Z,10.66
2023-05-01T00:07:12.732Z,10.64
2023-05-01T00:08:44.366Z,10.66
2023-05-01T00:10:16.201Z,10.63
2023-05-01T00:11:47.833Z,10.59
2023-05-01T00:13:21.888Z,10.51
2023-05-01T00:14:56.585Z,10.63
2023-05-01T00:16:28.270Z,10.30
2023-05-01T00:18:00.206Z,10.36
2023-05-01T00:19:32.823Z,10.46
2023-05-01T00:21:04.820Z,10.51
2023-05-01T00:22:36.500Z,10.44
2023-05-01T00:24:08.060Z,10.37
2023-05-01T00:25:39.912Z,10.30
2023-05-01T00:27:11.429Z,10.20
2023-05-01T00:28:43.258Z,10.34
2023-05-01T00:30:15.055Z,10.32
2023-05-01T00:31:47.630Z,10.34
2023-05-01T00:33:19.499Z,10.15
2023-05-01T00:34:51.496Z,10.00
2023-05-01T00:36:23.125Z,10.09
2023-05-01T00:37:54.817Z,10.11
2023-05-01T00:39:26.501Z,10.20
2023-05-01T00:40:58.131Z,10.08
2023-05-01T00:42:35.028Z,10.07
2023-05-01T00:44:06.733Z,10.07
2023-05-01T00:45:39.949Z,10.07
2023-05-01T00:47:11.744Z,10.16
2023-05-01T00:48:43.694Z,10.17
2023-05-01T00:50:15.348Z,10.06
2023-05-01T00:51:52.973Z,10.00
2023-05-01T00:53:26.365Z,9.97
2023-05-01T00:54:58.781Z,9.97
2023-05-01T00:56:31.582Z,10.12
2023-05-01T00:58:03.773Z,10.16
2023-05-01T00:59:35.607Z,10.18
2023-05-01T01:01:08.855Z,10.18
2023-05-01T01:02:40.937Z,10.23
2023-05-01T01:04:13.363Z,10.25
2023-05-01T01:06:00.270Z,10.14
2023-05-01T01:07:55.765Z,10.06
2023-05-01T01:09:39.260Z,10.03
2023-05-01T01:12:04.437Z,9.97
2023-05-01T01:13:54.765Z,10.01
2023-05-01T01:15:32.407Z,10.07
2023-05-01T01:17:26.981Z,10.08
2023-05-01T01:19:15.483Z,10.14
2023-05-01T01:20:46.991Z,10.14
2023-05-01T01:22:24.829Z,10.26
2023-05-01T01:24:18.235Z,10.14
2023-05-01T01:26:10.853Z,10.08
2023-05-01T01:28:01.589Z,10.08
2023-05-01T01:29:36.807Z,10.14
2023-05-01T01:31:17.923Z,10.29
2023-05-01T01:32:52.911Z,10.38
2023-05-01T01:34:28.143Z,10.35
2023-05-01T01:36:07.493Z,10.34
2023-05-01T01:37:57.458Z,10.37
2023-05-01T01:39:29.254Z,10.39
2023-05-01T01:41:31.805Z,10.42
2023-05-01T01:43:07.596Z,10.42
2023-05-01T01:44:46.666Z,10.37
2023-05-01T01:46:20.715Z,10.35
2023-05-01T01:47:53.356Z,10.38
2023-05-01T01:49:27.876Z,10.35
2023-05-01T01:51:01.682Z,10.34
2023-05-01T01:52:36.225Z,10.25
2023-05-01T01:54:11.722Z,10.26
2023-05-01T01:55:46.189Z,10.24
2023-05-01T01:57:20.897Z,10.31
2023-05-01T01:58:53.881Z,10.36
2023-05-01T02:00:28.528Z,10.30
2023-05-01T02:02:02.190Z,10.29
2023-05-01T02:03:36.096Z,10.32
2023-05-01T02:05:09.005Z,10.26
2023-05-01T02:06:41.822Z,10.23
2023-05-01T02:08:14.972Z,10.04
2023-05-01T02:09:50.327Z,10.05
2023-05-01T02:11:23.892Z,9.95
2023-05-01T02:12:58.237Z,9.88
2023-05-01T02:14:31.786Z,9.89
2023-05-01T02:16:06.236Z,10.00
2023-05-01T02:17:41.654Z,10.04
2023-05-01T02:19:15.256Z,9.88
2023-05-01T02:20:47.528Z,9.93
2023-05-01T02:22:21.438Z,9.85
2023-05-01T02:23:55.087Z,9.94
2023-05-01T02:25:30.558Z,10.08
2023-05-01T02:27:15.814Z,10.14
2023-05-01T02:28:47.446Z,10.11
2023-05-01T02:30:19.109Z,10.28
2023-05-01T02:31:50.784Z,10.29
2023-05-01T02:33:23.284Z,10.18
2023-05-01T02:34:55.016Z,10.22
2023-05-01T02:36:27.832Z,10.15
2023-05-01T02:37:59.479Z,10.21
2023-05-01T02:39:31.718Z,10.30
2023-05-01T02:41:04.250Z,10.23
2023-05-01T02:42:37.811Z,10.07
2023-05-01T02:44:12.769Z,10.12
2023-05-01T02:45:45.343Z,10.17
2023-05-01T02:47:21.374Z,10.22
2023-05-01T02:48:54.753Z,10.21
2023-05-01T02:50:27.333Z,10.19
2023-05-01T02:51:59.871Z,10.18
2023-05-01T02:53:32.817Z,10.21
2023-05-01T02:55:11.209Z,10.23
2023-05-01T02:56:43.166Z,10.23
2023-05-01T02:58:16.215Z,10.17
2023-05-01T02:59:47.788Z,10.11
2023-05-01T03:01:20.690Z,10.06
2023-05-01T03:02:52.429Z,10.05
2023-05-01T03:04:24.139Z,10.02
2023-05-01T03:05:55.875Z,9.95
2023-05-01T03:07:35.018Z,9.92
2023-05-01T03:09:06.659Z,9.91
2023-05-01T03:10:44.398Z,9.95
2023-05-01T03:12:16.068Z,9.86
2023-05-01T03:13:47.764Z,9.90
2023-05-01T03:15:19.343Z,9.91
2023-05-01T03:16:51.094Z,9.89
2023-05-01T03:18:22.708Z,9.94
2023-05-01T03:19:54.864Z,10.04
2023-05-01T03:21:26.695Z,10.08
2023-05-01T03:22:59.358Z,10.07
2023-05-01T03:24:30.902Z,10.07
2023-05-01T03:26:02.421Z,10.06
2023-05-01T03:27:34.054Z,10.07
2023-05-01T03:29:05.674Z,10.06
2023-05-01T03:30:37.307Z,10.06
2023-05-01T03:32:09.219Z,9.99
2023-05-01T03:33:41.553Z,10.01
2023-05-01T03:35:13.538Z,9.90
2023-05-01T03:36:45.086Z,9.92
2023-05-01T03:38:16.784Z,9.88
2023-05-01T03:40:07.395Z,9.83
2023-05-01T03:41:59.013Z,9.62
2023-05-01T03:43:34.343Z,9.61
2023-05-01T03:45:11.524Z,9.61
2023-05-01T03:46:44.011Z,9.73
2023-05-01T03:48:22.301Z,9.86
2023-05-01T03:49:54.125Z,9.85
2023-05-01T03:51:27.140Z,9.86
2023-05-01T03:53:00.030Z,9.92
2023-05-01T03:54:31.660Z,9.91
2023-05-01T03:56:06.822Z,9.85
2023-05-01T03:57:38.580Z,9.88
2023-05-01T03:59:11.293Z,9.93
2023-05-01T04:00:43.040Z,9.91
2023-05-01T04:02:15.015Z,9.77
2023-05-01T04:03:48.322Z,9.81
2023-05-01T04:05:21.583Z,9.86
2023-05-01T04:06:58.251Z,9.83
2023-05-01T04:08:29.923Z,9.86
2023-05-01T04:10:01.469Z,9.77
2023-05-01T04:11:33.250Z,9.76
2023-05-01T04:13:05.096Z,9.86
2023-05-01T04:14:37.105Z,9.76
2023-05-01T04:16:09.098Z,9.71
2023-05-01T04:17:40.891Z,9.80
2023-05-01T04:19:13.878Z,9.80
2023-05-01T04:20:48.209Z,9.86
2023-05-01T04:22:21.389Z,9.88
2023-05-01T04:23:53.463Z,9.94
2023-05-01T04:25:25.272Z,9.96
2023-05-01T04:27:01.590Z,9.98
2023-05-01T04:28:33.862Z,9.99
2023-05-01T04:30:06.194Z,9.99
2023-05-01T04:31:37.934Z,9.96
2023-05-01T04:33:12.511Z,9.88
2023-05-01T04:34:44.915Z,9.85
2023-05-01T04:36:17.048Z,9.84
2023-05-01T04:37:49.503Z,9.74
2023-05-01T04:39:21.090Z,9.72
2023-05-01T04:40:52.713Z,9.73
2023-05-01T04:42:30.783Z,9.79
2023-05-01T04:44:03.122Z,9.87
2023-05-01T04:45:34.656Z,9.88
2023-05-01T04:47:08.786Z,9.89
2023-05-01T04:48:40.899Z,9.90
2023-05-01T04:50:12.471Z,9.95
2023-05-01T04:51:45.859Z,9.93
2023-05-01T04:53:19.633Z,9.99
2023-05-01T04:54:51.220Z,9.98
2023-05-01T04:56:24.572Z,9.90
2023-05-01T04:57:59.677Z,9.78
2023-05-01T04:59:31.279Z,9.86
2023-05-01T05:01:03.041Z,9.95
2023-05-01T05:02:34.762Z,9.47
2023-05-01T05:04:07.974Z,9.52
2023-05-01T05:05:39.737Z,9.56
2023-05-01T05:07:12.665Z,9.70
2023-05-01T05:09:04.314Z,9.67
2023-05-01T05:10:36.265Z,9.73
2023-05-01T05:12:24.046Z,9.79
2023-05-01T05:13:55.697Z,9.73
2023-05-01T05:15:27.295Z,9.87
2023-05-01T05:16:58.985Z,9.88
2023-05-01T05:18:31.664Z,9.90
2023-05-01T05:20:03.981Z,9.92
2023-05-01T05:21:35.637Z,9.99
2023-05-01T05:23:08.658Z,9.96
2023-05-01T05:24:40.511Z,9.97
2023-05-01T05:26:12.456Z,10.03
2023-05-01T05:27:44.039Z,10.06
2023-05-01T05:29:15.652Z,10.09
2023-05-01T05:30:47.446Z,10.13
2023-05-01T05:32:21.807Z,10.16
2023-05-01T05:33:53.482Z,10.23
2023-05-01T05:35:25.346Z,10.17
2023-05-01T05:36:57.191Z,10.15
2023-05-01T05:38:30.323Z,10.07
2023-05-01T05:40:03.176Z,10.03
2023-05-01T05:41:40.988Z,9.94
2023-05-01T05:43:12.671Z,10.02
2023-05-01T05:44:44.430Z,10.02
2023-05-01T05:46:17.327Z,10.11
2023-05-01T05:47:49.249Z,10.15
2023-05-01T05:49:21.080Z,10.11
2023-05-01T05:50:52.869Z,10.07
2023-05-01T05:52:25.780Z,10.00
2023-05-01T05:53:57.561Z,10.08
2023-05-01T05:55:29.421Z,10.18
2023-05-01T05:57:10.928Z,10.09
2023-05-01T05:58:47.822Z,10.12
2023-05-01T06:00:19.843Z,10.19
2023-05-01T06:01:54.406Z,10.11
2023-05-01T06:03:27.293Z,10.20
2023-05-01T06:05:03.307Z,10.16
2023-05-01T06:06:35.004Z,10.15
2023-05-01T06:08:06.758Z,10.17
2023-05-01T06:09:38.574Z,10.20
2023-05-01T06:11:10.723Z,10.37
2023-05-01T06:12:57.987Z,10.37
2023-05-01T06:14:35.145Z,10.32
2023-05-01T06:16:07.778Z,10.23
2023-05-01T06:17:39.488Z,10.25
2023-05-01T06:19:12.250Z,10.19
2023-05-01T06:20:45.360Z,9.96
2023-05-01T06:22:16.984Z,9.98
2023-05-01T06:24:03.472Z,9.79
2023-05-01T06:25:44.358Z,9.96
2023-05-01T06:27:15.992Z,10.08
2023-05-01T06:28:47.620Z,10.16
2023-05-01T06:30:19.911Z,10.28
2023-05-01T06:31:51.508Z,10.34
2023-05-01T06:33:23.223Z,10.37
2023-05-01T06:35:06.750Z,10.20
2023-05-01T06:36:38.932Z,10.21
2023-05-01T06:38:10.615Z,10.38
2023-05-01T06:39:42.319Z,10.42
2023-05-01T06:41:16.048Z,10.41
2023-05-01T06:42:47.689Z,10.42
2023-05-01T06:44:20.106Z,10.59
2023-05-01T06:45:51.694Z,10.46
2023-05-01T06:47:24.201Z,10.32
2023-05-01T06:48:55.824Z,10.45
2023-05-01T06:50:28.847Z,10.37
2023-05-01T06:52:00.423Z,10.54
2023-05-01T06:53:32.377Z,10.57
2023-05-01T06:55:04.166Z,10.51
2023-05-01T06:56:35.733Z,10.24
2023-05-01T06:58:22.551Z,10.21
2023-05-01T06:59:55.808Z,10.41
2023-05-01T07:01:31.145Z,10.40
2023-05-01T07:03:04.285Z,10.59
2023-05-01T07:04:35.875Z,10.67
2023-05-01T07:06:07.539Z,10.61
2023-05-01T07:07:44.581Z,10.64
2023-05-01T07:09:22.017Z,10.72
2023-05-01T07:10:54.082Z,10.84
2023-05-01T07:12:25.800Z,10.90
2023-05-01T07:13:57.530Z,10.92
2023-05-01T07:15:29.955Z,11.03
2023-05-01T07:17:02.339Z,10.83
2023-05-01T07:18:34.881Z,10.45
2023-05-01T07:20:07.177Z,10.50
2023-05-01T07:21:38.861Z,10.77
2023-05-01T07:23:10.473Z,10.85
2023-05-01T07:24:42.105Z,10.73
2023-05-01T07:26:13.833Z,10.81
2023-05-01T07:27:45.463Z,10.89
2023-05-01T07:29:17.125Z,10.94
2023-05-01T07:30:48.943Z,10.95
2023-05-01T07:32:20.632Z,10.94
2023-05-01T07:33:54.230Z,10.92
2023-05-01T07:35:26.203Z,10.94
2023-05-01T07:36:57.992Z,10.93
2023-05-01T07:38:29.604Z,10.78
2023-05-01T07:40:01.395Z,10.63
2023-05-01T07:41:33.104Z,10.66
2023-05-01T07:43:05.175Z,10.66
2023-05-01T07:44:36.900Z,10.73
2023-05-01T07:46:08.565Z,10.83
2023-05-01T07:47:40.505Z,10.94
2023-05-01T07:49:12.142Z,10.98
2023-05-01T07:50:43.736Z,11.17
2023-05-01T07:52:15.955Z,11.16
2023-05-01T07:54:08.318Z,11.06
2023-05-01T07:55:40.652Z,11.22
2023-05-01T07:57:12.324Z,11.34
2023-05-01T07:58:44.278Z,11.34
2023-05-01T08:00:16.987Z,11.37
2023-05-01T08:01:48.670Z,11.50
2023-05-01T08:03:20.380Z,11.57
2023-05-01T08:04:52.243Z,11.62
2023-05-01T08:06:24.213Z,11.53
2023-05-01T08:07:55.912Z,11.69
2023-05-01T08:09:27.532Z,11.93
2023-05-01T08:10:59.181Z,12.06
2023-05-01T08:12:31.428Z,12.01
2023-05-01T08:14:03.864Z,11.50
2023-05-01T08:15:39.432Z,11.63
2023-05-01T08:17:11.118Z,11.45
2023-05-01T08:18:42.964Z,11.62
2023-05-01T08:20:14.648Z,11.70
2023-05-01T08:21:46.312Z,11.73
2023-05-01T08:23:18.123Z,11.66
2023-05-01T08:24:50.822Z,11.78
2023-05-01T08:26:22.944Z,12.24
2023-05-01T08:27:54.657Z,12.51
2023-05-01T08:29:26.331Z,12.62
2023-05-01T08:30:58.133Z,12.68
2023-05-01T08:32:29.825Z,12.66
2023-05-01T08:34:01.444Z,12.78
2023-05-01T08:35:33.090Z,12.83
2023-05-01T08:37:05.134Z,12.72
2023-05-01T08:38:40.057Z,12.67
2023-05-01T08:40:12.069Z,12.64
2023-05-01T08:41:46.435Z,12.81
2023-05-01T08:43:18.187Z,12.88
2023-05-01T08:44:51.241Z,12.95
2023-05-01T08:46:34.147Z,12.99
2023-05-01T08:48:13.181Z,13.00
2023-05-01T08:49:47.342Z,13.01
2023-05-01T08:51:22.452Z,12.74
2023-05-01T08:52:55.488Z,13.14
2023-05-01T08:54:28.207Z,13.20
2023-05-01T08:56:01.481Z,12.96
2023-05-01T08:57:33.983Z,13.17
2023-05-01T08:59:06.143Z,13.33
2023-05-01T09:00:39.546Z,13.44
2023-05-01T09:02:11.528Z,13.62
2023-05-01T09:03:45.710Z,13.71
2023-05-01T09:05:21.173Z,13.88
2023-05-01T09:06:55.388Z,13.88
2023-05-01T09:08:27.626Z,13.87
2023-05-01T09:09:59.419Z,13.83
2023-05-01T09:11:31.365Z,14.16
2023-05-01T09:13:07.056Z,14.46
2023-05-01T09:14:39.004Z,14.49
2023-05-01T09:16:11.075Z,14.20
2023-05-01T09:17:44.939Z,13.99
2023-05-01T09:19:16.860Z,14.35
2023-05-01T09:20:48.708Z,14.45
2023-05-01T09:22:21.340Z,14.30
2023-05-01T09:23:53.887Z,14.60
2023-05-01T09:25:25.594Z,14.57
2023-05-01T09:26:58.834Z,14.53
2023-05-01T09:28:41.707Z,14.58
2023-05-01T09:30:42.149Z,14.61
2023-05-01T09:32:15.169Z,14.69
2023-05-01T09:33:55.653Z,15.13
2023-05-01T09:35:28.138Z,15.05
2023-05-01T09:37:00.276Z,15.01
2023-05-01T09:38:32.303Z,14.89
2023-05-01T09:40:07.492Z,15.15
2023-05-01T09:41:52.242Z,15.06
2023-05-01T09:43:26.787Z,15.14
2023-05-01T09:45:03.824Z,15.05
2023-05-01T09:46:43.985Z,15.25
2023-05-01T09:48:16.987Z,15.21
2023-05-01T09:49:49.337Z,15.22
2023-05-01T09:51:21.576Z,15.61
2023-05-01T09:52:53.238Z,15.52
2023-05-01T09:54:25.049Z,15.61
2023-05-01T09:56:03.301Z,15.70
2023-05-01T09:57:38.305Z,15.88
2023-05-01T09:59:20.270Z,16.17
2023-05-01T10:00:52.109Z,15.89
2023-05-01T10:02:30.960Z,15.78
2023-05-01T10:04:03.698Z,16.02
2023-05-01T10:05:45.815Z,16.50
2023-05-01T10:07:17.373Z,16.66
2023-05-01T10:08:50.667Z,16.85
2023-05-01T10:10:22.769Z,17.05
2023-05-01T10:11:57.755Z,16.55
2023-05-01T10:13:30.813Z,16.53
2023-05-01T10:15:17.278Z,16.78
2023-05-01T10:16:57.966Z,16.68
2023-05-01T10:18:30.711Z,16.69
2023-05-01T10:20:02.386Z,16.64
2023-05-01T10:21:34.431Z,16.71
2023-05-01T10:23:06.481Z,16.45
2023-05-01T10:24:39.595Z,16.50
2023-05-01T10:26:13.986Z,16.49
2023-05-01T10:27:46.422Z,16.20
2023-05-01T10:29:20.821Z,16.19
2023-05-01T10:30:54.042Z,15.81
2023-05-01T10:32:25.915Z,15.80
2023-05-01T10:33:57.796Z,15.90
2023-05-01T10:35:33.420Z,15.89
2023-05-01T10:37:12.953Z,16.03
2023-05-01T10:38:48.333Z,15.86
2023-05-01T10:40:38.910Z,15.76
2023-05-01T10:42:14.312Z,15.75
2023-05-01T10:43:46.250Z,15.43
2023-05-01T10:45:30.981Z,15.53
2023-05-01T10:47:29.772Z,15.46
2023-05-01T10:49:01.702Z,15.33
2023-05-01T10:50:34.734Z,15.29
2023-05-01T10:52:06.798Z,15.42
2023-05-01T10:53:40.093Z,15.13
2023-05-01T10:55:34.158Z,15.03
2023-05-01T10:57:06.538Z,14.64
2023-05-01T10:58:41.240Z,14.50
2023-05-01T11:00:13.492Z,14.39
2023-05-01T11:01:48.036Z,14.76
2023-05-01T11:03:22.800Z,14.93
2023-05-01T11:04:56.178Z,14.97
2023-05-01T11:06:28.462Z,15.05
2023-05-01T11:08:33.237Z,15.20
2023-05-01T11:10:25.796Z,15.42
2023-05-01T11:11:57.556Z,15.57
2023-05-01T11:14:04.547Z,15.83
2023-05-01T11:15:36.641Z,15.60
2023-05-01T11:17:08.520Z,15.91
2023-05-01T11:18:46.661Z,16.12
2023-05-01T11:20:24.376Z,16.36
2023-05-01T11:21:57.114Z,16.57
2023-05-01T11:23:28.803Z,16.62
2023-05-01T11:25:04.974Z,16.57
2023-05-01T11:26:39.813Z,16.71
2023-05-01T11:28:11.878Z,16.74
2023-05-01T11:29:45.980Z,16.79
2023-05-01T11:31:19.034Z,16.90
2023-05-01T11:32:52.332Z,17.11
2023-05-01T11:34:25.517Z,17.42
2023-05-01T11:36:00.423Z,17.24
2023-05-01T11:37:42.779Z,17.03
2023-05-01T11:39:16.474Z,17.17
2023-05-01T11:40:55.572Z,17.18
2023-05-01T11:42:27.310Z,17.12
2023-05-01T11:43:59.675Z,17.23
2023-05-01T11:45:32.961Z,17.35
2023-05-01T11:47:07.425Z,17.12
2023-05-01T11:48:39.325Z,17.13
2023-05-01T11:50:11.325Z,17.16
2023-05-01T11:51:43.083Z,17.38
2023-05-01T11:53:18.592Z,17.42
2023-05-01T11:54:50.281Z,17.40
2023-05-01T11:56:26.731Z,17.35
2023-05-01T11:57:59.339Z,17.40
2023-05-01T11:59:31.105Z,17.26
2023-05-01T12:01:03.314Z,17.58
2023-05-01T12:02:35.053Z,17.68
2023-05-01T12:04:08.785Z,17.64
2023-05-01T12:05:42.808Z,17.85
2023-05-01T12:07:24.194Z,18.07
2023-05-01T12:08:56.008Z,17.90
2023-05-01T12:10:27.774Z,18.18
2023-05-01T12:12:01.946Z,17.99
2023-05-01T12:13:33.841Z,18.25
2023-05-01T12:15:05.897Z,18.20
2023-05-01T12:16:40.424Z,18.26
2023-05-01T12:18:14.176Z,18.53
2023-05-01T12:19:48.846Z,18.65
2023-05-01T12:21:20.600Z,18.70
2023-05-01T12:22:52.637Z,18.51
2023-05-01T12:24:24.337Z,18.71
2023-05-01T12:25:56.221Z,19.03
2023-05-01T12:27:28.075Z,18.56
2023-05-01T12:29:04.166Z,18.82
2023-05-01T12:30:36.661Z,18.93
2023-05-01T12:32:08.757Z,18.91
2023-05-01T12:33:40.546Z,19.28
2023-05-01T12:35:15.042Z,19.32
2023-05-01T12:36:55.009Z,19.09
2023-05-01T12:38:26.772Z,19.42
2023-05-01T12:39:58.606Z,19.46
2023-05-01T12:41:42.353Z,19.68
2023-05-01T12:43:15.074Z,19.70
2023-05-01T12:44:46.804Z,19.43
2023-05-01T12:46:18.596Z,19.72
2023-05-01T12:47:50.383Z,19.80
2023-05-01T12:49:23.568Z,19.81
2023-05-01T12:50:55.918Z,20.42
2023-05-01T12:52:28.167Z,20.75
2023-05-01T12:53:59.906Z,20.27
2023-05-01T12:55:34.139Z,20.67
2023-05-01T12:57:11.322Z,21.00
2023-05-01T12:58:43.195Z,22.44
2023-05-01T13:00:15.551Z,23.38
2023-05-01T13:01:47.407Z,22.63
2023-05-01T13:03:27.592Z,22.80
2023-05-01T13:05:12.107Z,24.45
2023-05-01T13:06:47.494Z,24.67
2023-05-01T13:08:27.733Z,24.21
2023-05-01T13:10:00.609Z,22.81
2023-05-01T13:11:32.952Z,22.43
2023-05-01T13:13:05.022Z,21.34
2023-05-01T13:14:39.021Z,20.08
2023-05-01T13:16:16.890Z,20.54
2023-05-01T13:17:49.175Z,22.62
2023-05-01T13:19:29.638Z,24.31
2023-05-01T13:21:09.715Z,27.91
2023-05-01T13:22:41.648Z,24.37
2023-05-01T13:24:16.371Z,22.93
2023-05-01T13:25:48.096Z,22.02
2023-05-01T13:27:21.916Z,20.69
2023-05-01T13:28:54.268Z,19.94
2023-05-01T13:30:33.349Z,19.20
2023-05-01T13:32:06.387Z,19.11
2023-05-01T13:33:39.952Z,18.51
2023-05-01T13:35:11.765Z,17.71
2023-05-01T13:36:44.220Z,17.02
2023-05-01T13:38:16.145Z,16.70
2023-05-01T13:39:49.095Z,16.25
2023-05-01T13:41:23.700Z,16.29
2023-05-01T13:42:57.764Z,16.01
2023-05-01T13:44:32.396Z,15.88
2023-05-01T13:46:08.503Z,15.46
2023-05-01T13:47:42.829Z,15.04
2023-05-01T13:49:20.577Z,14.96
2023-05-01T13:50:52.613Z,14.84
2023-05-01T13:52:24.601Z,14.85
2023-05-01T13:53:56.354Z,14.81
2023-05-01T13:55:28.328Z,14.78
2023-05-01T13:57:01.024Z,14.22
2023-05-01T13:58:33.771Z,13.94
2023-05-01T14:00:16.542Z,13.97
2023-05-01T14:01:48.307Z,14.06
2023-05-01T14:03:24.542Z,14.34
2023-05-01T14:04:59.284Z,14.52
2023-05-01T14:06:41.485Z,14.94
2023-05-01T14:08:14.777Z,15.37
2023-05-01T14:10:11.588Z,15.72
2023-05-01T14:11:48.292Z,16.14
2023-05-01T14:13:20.076Z,16.27
2023-05-01T14:14:53.421Z,16.31
2023-05-01T14:16:27.901Z,16.26
2023-05-01T14:18:05.547Z,15.30
2023-05-01T14:19:40.090Z,15.42
2023-05-01T14:21:16.631Z,15.31
2023-05-01T14:22:53.316Z,14.67
2023-05-01T14:24:25.554Z,14.97
2023-05-01T14:25:57.428Z,14.71
2023-05-01T14:27:29.398Z,14.54
2023-05-01T14:29:26.215Z,14.21
2023-05-01T14:30:58.013Z,14.39
2023-05-01T14:32:29.945Z,14.31
2023-05-01T14:34:04.141Z,14.47
2023-05-01T14:35:38.933Z,13.92
2023-05-01T14:37:11.578Z,13.86
2023-05-01T14:38:46.897Z,14.12
2023-05-01T14:40:25.268Z,14.27
2023-05-01T14:41:58.284Z,14.08
2023-05-01T14:43:30.048Z,13.97
2023-05-01T14:45:06.637Z,14.06
2023-05-01T14:46:46.330Z,13.68
2023-05-01T14:48:21.011Z,13.78
2023-05-01T14:49:55.741Z,13.72
2023-05-01T14:51:28.618Z,13.59
2023-05-01T14:53:02.375Z,13.43
2023-05-01T14:54:45.528Z,13.60
2023-05-01T14:56:18.608Z,13.53
2023-05-01T14:57:52.092Z,13.37
2023-05-01T14:59:25.483Z,13.46
2023-05-01T15:00:59.474Z,13.14
2023-05-01T15:02:33.029Z,13.36
2023-05-01T15:04:08.480Z,13.36
2023-05-01T15:05:42.450Z,13.28
2023-05-01T15:07:16.380Z,13.25
2023-05-01T15:08:49.390Z,13.28
2023-05-01T15:10:24.262Z,13.46
2023-05-01T15:11:59.341Z,13.44
2023-05-01T15:13:32.609Z,13.33
2023-05-01T15:15:08.647Z,13.41
2023-05-01T15:16:41.666Z,13.48
2023-05-01T15:18:14.790Z,13.48
2023-05-01T15:19:48.275Z,13.19
2023-05-01T15:21:21.507Z,13.27
2023-05-01T15:22:54.967Z,13.17
2023-05-01T15:24:27.609Z,13.27
2023-05-01T15:26:02.127Z,12.86
2023-05-01T15:27:35.592Z,12.64
2023-05-01T15:29:08.636Z,12.93
2023-05-01T15:30:47.125Z,12.90
2023-05-01T15:32:20.272Z,13.10
2023-05-01T15:33:53.299Z,13.18
2023-05-01T15:35:27.466Z,12.91
2023-05-01T15:37:00.302Z,12.98
2023-05-01T15:38:34.018Z,12.75
2023-05-01T15:40:07.352Z,12.82
2023-05-01T15:41:41.259Z,12.89
2023-05-01T15:43:15.213Z,13.06
2023-05-01T15:44:48.920Z,13.17
2023-05-01T15:46:23.889Z,12.99
2023-05-01T15:47:56.955Z,13.01
2023-05-01T15:49:30.366Z,13.21
2023-05-01T15:51:05.204Z,13.39
2023-05-01T15:52:37.793Z,13.49
2023-05-01T15:54:11.482Z,13.47
2023-05-01T15:55:45.463Z,13.31
2023-05-01T15:57:18.754Z,13.34
2023-05-01T15:58:51.717Z,13.33
2023-05-01T16:00:26.199Z,13.40
2023-05-01T16:01:59.497Z,13.45
2023-05-01T16:03:32.562Z,13.14
2023-05-01T16:05:05.946Z,13.15
2023-05-01T16:06:41.051Z,13.04
2023-05-01T16:08:15.496Z,13.22
2023-05-01T16:09:49.701Z,13.29
2023-05-01T16:11:23.857Z,13.31
2023-05-01T16:12:56.957Z,12.94
2023-05-01T16:14:29.326Z,13.09
2023-05-01T16:16:02.464Z,13.19
2023-05-01T16:17:43.805Z,13.09
2023-05-01T16:19:17.921Z,13.24
2023-05-01T16:20:55.263Z,13.35
2023-05-01T16:22:28.806Z,13.40
2023-05-01T16:24:02.772Z,13.23
2023-05-01T16:25:35.657Z,13.06
2023-05-01T16:27:11.870Z,13.15
2023-05-01T16:28:44.805Z,13.11
2023-05-01T16:30:17.757Z,13.37
2023-05-01T16:31:51.812Z,13.30
2023-05-01T16:33:26.194Z,13.50
2023-05-01T16:34:59.531Z,13.78
2023-05-01T16:36:33.599Z,13.81
2023-05-01T16:38:07.933Z,13.93
2023-05-01T16:39:40.953Z,14.03
2023-05-01T16:41:19.978Z,14.12
2023-05-01T16:42:54.886Z,14.19
2023-05-01T16:44:29.190Z,13.93
2023-05-01T16:46:04.077Z,13.74
2023-05-01T16:47:38.284Z,13.80
2023-05-01T16:49:14.290Z,13.97
2023-05-01T16:50:48.429Z,13.78
2023-05-01T16:52:21.834Z,13.83
2023-05-01T16:53:55.100Z,13.92
2023-05-01T16:55:28.384Z,13.96
2023-05-01T16:57:03.755Z,13.95
2023-05-01T16:58:38.000Z,13.92
2023-05-01T17:00:12.067Z,13.63
2023-05-01T17:01:46.123Z,13.41
2023-05-01T17:03:19.404Z,13.51
2023-05-01T17:04:52.969Z,13.14
2023-05-01T17:06:27.354Z,13.40
2023-05-01T17:08:00.956Z,13.28
2023-05-01T17:09:35.005Z,13.49
2023-05-01T17:11:08.470Z,13.53
2023-05-01T17:12:42.414Z,13.44
2023-05-01T17:14:15.133Z,13.31
2023-05-01T17:15:48.768Z,13.39
2023-05-01T17:17:23.390Z,13.42
2023-05-01T17:18:56.925Z,13.44
2023-05-01T17:20:30.246Z,13.44
2023-05-01T17:22:04.019Z,13.41
2023-05-01T17:23:37.707Z,13.40
2023-05-01T17:25:11.383Z,13.42
2023-05-01T17:26:44.470Z,13.43
2023-05-01T17:28:17.441Z,13.47
2023-05-01T17:29:50.886Z,13.43
2023-05-01T17:31:24.274Z,13.33
2023-05-01T17:32:57.878Z,13.33
2023-05-01T17:34:32.814Z,13.33
2023-05-01T17:36:06.853Z,13.35
2023-05-01T17:37:43.410Z,13.32
2023-05-01T17:39:16.696Z,13.28
2023-05-01T17:40:50.220Z,13.26
2023-05-01T17:42:23.226Z,13.17
2023-05-01T17:43:56.721Z,13.18
2023-05-01T17:45:31.115Z,13.12
2023-05-01T17:47:04.638Z,13.06
2023-05-01T17:48:38.636Z,13.08
2023-05-01T17:50:14.140Z,13.10
2023-05-01T17:51:47.503Z,13.10
2023-05-01T17:53:24.079Z,13.12
2023-05-01T17:54:58.006Z,13.13
2023-05-01T17:56:30.959Z,13.18
2023-05-01T17:58:03.266Z,13.17
2023-05-01T17:59:35.705Z,13.12
2023-05-01T18:01:07.533Z,13.19
2023-05-01T18:02:45.198Z,13.17
2023-05-01T18:04:18.732Z,13.13
2023-05-01T18:05:52.601Z,13.03
2023-05-01T18:07:24.564Z,13.08
2023-05-01T18:08:56.399Z,13.15
2023-05-01T18:10:32.327Z,13.04
2023-05-01T18:12:05.429Z,13.02
2023-05-01T18:13:40.464Z,13.10
2023-05-01T18:15:19.331Z,13.05
2023-05-01T18:16:55.640Z,13.03
2023-05-01T18:18:28.982Z,12.99
2023-05-01T18:20:02.434Z,12.99
2023-05-01T18:21:35.948Z,13.01
2023-05-01T18:23:10.033Z,12.82
2023-05-01T18:24:43.657Z,12.60
2023-05-01T18:26:17.914Z,12.62
2023-05-01T18:27:51.235Z,12.70
2023-05-01T18:29:23.864Z,12.75
2023-05-01T18:30:55.712Z,12.75
2023-05-01T18:32:39.333Z,12.72
2023-05-01T18:34:19.192Z,12.77
2023-05-01T18:35:52.006Z,12.77
2023-05-01T18:37:25.992Z,12.77
2023-05-01T18:38:57.823Z,12.73
2023-05-01T18:40:32.714Z,12.73
2023-05-01T18:42:05.052Z,12.72
2023-05-01T18:43:36.966Z,12.44
2023-05-01T18:45:12.163Z,12.40
2023-05-01T18:46:45.079Z,12.29
2023-05-01T18:48:17.682Z,12.17
2023-05-01T18:49:49.391Z,12.07
2023-05-01T18:51:21.815Z,12.12
2023-05-01T18:52:53.593Z,12.15
2023-05-01T18:54:25.918Z,12.17
2023-05-01T18:55:57.686Z,12.15
2023-05-01T18:57:31.614Z,12.08
2023-05-01T18:59:03.306Z,12.13
2023-05-01T19:00:35.737Z,12.10
2023-05-01T19:02:07.784Z,11.95
2023-05-01T19:03:40.480Z,12.07
2023-05-01T19:05:14.044Z,12.07
2023-05-01T19:06:46.052Z,12.01
2023-05-01T19:08:18.132Z,12.03
2023-05-01T19:09:50.211Z,12.01
2023-05-01T19:11:22.190Z,11.97
2023-05-01T19:12:54.627Z,11.81
2023-05-01T19:14:27.745Z,11.86
2023-05-01T19:15:59.709Z,11.84
2023-05-01T19:17:32.445Z,11.80
2023-05-01T19:19:04.409Z,11.59
2023-05-01T19:20:36.141Z,11.64
2023-05-01T19:22:08.929Z,11.64
2023-05-01T19:23:43.779Z,11.60
2023-05-01T19:25:16.476Z,11.62
2023-05-01T19:26:49.782Z,11.70
2023-05-01T19:28:21.728Z,11.69
2023-05-01T19:29:55.088Z,11.69
2023-05-01T19:31:27.372Z,11.70
2023-05-01T19:32:59.868Z,11.75
2023-05-01T19:34:32.429Z,11.72
2023-05-01T19:36:05.091Z,11.73
2023-05-01T19:37:38.790Z,11.69
2023-05-01T19:39:10.962Z,11.72
2023-05-01T19:40:44.919Z,11.77
2023-05-01T19:42:16.795Z,11.77
2023-05-01T19:43:49.749Z,11.81
2023-05-01T19:45:21.679Z,11.74
2023-05-01T19:46:53.667Z,11.69
2023-05-01T19:48:25.495Z,11.70
2023-05-01T19:49:57.479Z,11.68
2023-05-01T19:51:29.325Z,11.69
2023-05-01T19:53:02.207Z,11.68
2023-05-01T19:54:33.855Z,11.60
2023-05-01T19:56:07.096Z,11.60
2023-05-01T19:57:40.555Z,11.58
2023-05-01T19:59:13.409Z,11.47
2023-05-01T20:00:46.570Z,11.56
2023-05-01T20:02:18.919Z,11.63
2023-05-01T20:03:50.913Z,11.69
2023-05-01T20:05:28.496Z,11.69
2023-05-01T20:07:03.015Z,11.71
2023-05-01T20:08:35.306Z,11.74
2023-05-01T20:10:09.887Z,11.75
2023-05-01T20:11:43.068Z,11.65
2023-05-01T20:13:15.991Z,11.66
2023-05-01T20:14:50.162Z,11.68
2023-05-01T20:16:22.744Z,11.65
2023-05-01T20:17:56.242Z,11.70
2023-05-01T20:19:29.495Z,11.63